Racecast

Wendy Bires-Johnson

Temperance Bedford (MI) · 8 · SECMI D1MONROE · Compare head to head

Athlete rating 115.4 2023 XC season
Best race 120.1 XC
Races 26
Seasons 3 2021 — 2023

RankedNation #10006·MI #1049·Team #13 ?

Rating scale ?
Speed rating — all races

Cross Country

XC speed rating

2023 XC 112.9

Temperance Bedford (MI) · Grade 8

Date Meet Event Result Place Rating Difficulty PR/SR Flags
2023-10-25 Milan HS OFFICIAL 3218m 14:39.1 40th · 3rd on team 115.3 -0.004 ★CR CSR
2023-10-18 Indian Creek OFFICIAL 3218m 14:30 32nd · 4th on team 115.5 -0.001 ★CR SR CSR RSR
2023-10-14 Munson Park 3200m 15:11.2 30th · 2nd on team 111.3 +0.000 SR CSR
2023-10-04 Ella Sharp Park OFFICIAL 3218m 15:33.8 31st · 4th on team 109.2 +0.004
2023-09-30 Lake Erie Metro Park OFFICIAL 3218m 15:14.1 65th · 5th on team 110.7 -0.000 CSR
2023-09-22 Ella Sharp Park OFFICIAL 3218m 14:42.3 36th · 3rd on team 115.5 +0.004 SR CSR RSR
2023-09-20 Heritage Park (Adrian) OFFICIAL 3218m 14:59.3 16th · 2nd on team 112.9 +0.014 ★CR SR CSR RSR

2022 XC 116.7

Temperance Bedford (MI) · Grade 7

Date Meet Event Result Place Rating Difficulty PR/SR Flags
2022-10-22 Hudson HS 3218m 13:57.2 27th · 4th on team 120.1 -0.009 ★CR ★R CSR RSR
2022-10-19 Saline High School 3218m 14:15.6 26th · 3rd on team 117.1 -0.021 ★CR CSR
2022-10-15 Munson Park 3200m 14:54.8 44th · 10th on team 112.8 +0.000 ★CR CSR
2022-10-08 Monroe Township Stoneco Park 3218m 13:56.9 18th · 5th on team 117.7 -0.030 ★PR ★CR SR CSR
2022-10-05 Tecumseh HS 3218m 14:14.6 24th · 5th on team 118.1 -0.008 PR ★CR R SR CSR RSR
2022-10-01 Lake Erie Metro Park OFFICIAL 3218m 14:43.4 44th · 7th on team 115.2 -0.000 ★CR CSR
2022-09-23 Ella Sharp Park OFFICIAL 3218m 14:40 37th · 6th on team 116.5 +0.004 PR ★CR SR CSR
2022-09-17 Ottawa Park Golf Course 3200m 14:52.7 21st · 2nd on team 117.2 +0.027 ★CR R CSR RSR
2022-09-10 Hedges Boyer Park 3200m 14:51.2 60th · 5th on team 115.8 +0.015 ★PR ★CR R SR CSR RSR

2021 XC 102.0

Temperance Bedford (MI) · Grade 6

Date Meet Event Result Place Rating Difficulty PR/SR Flags
2021-10-20 Munson Park 3200m 17:26.7 17th · 4th on team 97.6 +0.000 CR CSR
2021-10-09 Monroe Township Stoneco Park 3218m 16:36.9 2nd · 2nd on team 99.9 -0.030 CR CSR
2021-10-06 Hudson Mills Metropark - OFFICIAL 3218m 16:09.1 15th · 4th on team 107.9 +0.020 PR ★CR R SR CSR RSR
2021-09-24 Ella Sharp Park OFFICIAL 3218m 16:56.1 86th · 13th on team 102.9 +0.004 PR CR R SR CSR RSR
2021-09-01 Eastwood High School 3200m 17:18 45th · 4th on team 101.8 +0.037 PR ★CR R SR CSR RSR

Track & Field

TF speed rating

2022 TF 109.5

Temperance Bedford (MI) · Grade 6

Date Meet Event Result Place Rating Difficulty PR/SR Flags
2022-05-18 22 Middle School Hornet Relays 1600m 6:54.25 18th · 3rd on team 107.8 -0.033
2022-05-09 SEC-MS Tecumseh @ Bedford 3200m 14:58 3rd · 1st on team 108.8 -0.026
2022-04-28 SEC-MS Monroe @ Bedford 3200m 14:43.56 1st · 1st on team 109.5 -0.026 ★PR SR
2022-04-25 SEC MS: Lincoln @ Bedford 1600m 6:41 1st · 1st on team 111.9 -0.026 ★PR R SR RSR
2022-04-25 SEC MS: Lincoln @ Bedford 400m 1:17.12 8th · 4th on team -0.026 ★PR SR